createdAt,value
2023-01-19T00:00:13.951Z,965.07
2023-01-19T00:01:13.812Z,965.07
2023-01-19T00:02:13.718Z,965.06
2023-01-19T00:03:13.638Z,965.08
2023-01-19T00:04:13.543Z,965.05
2023-01-19T00:05:13.468Z,965.02
2023-01-19T00:06:13.406Z,965.01
2023-01-19T00:07:13.293Z,965.06
2023-01-19T00:08:13.195Z,965.05
2023-01-19T00:09:13.114Z,965.03
2023-01-19T00:10:13.029Z,965.04
2023-01-19T00:11:12.936Z,965.07
2023-01-19T00:12:12.856Z,965.13
2023-01-19T00:13:12.770Z,965.15
2023-01-19T00:14:12.687Z,965.20
2023-01-19T00:15:12.594Z,965.21
2023-01-19T00:16:12.588Z,965.20
2023-01-19T00:17:12.415Z,965.22
2023-01-19T00:18:12.328Z,965.22
2023-01-19T00:19:12.252Z,965.19
2023-01-19T00:20:12.158Z,965.17
2023-01-19T00:21:12.069Z,965.22
2023-01-19T00:22:11.984Z,965.19
2023-01-19T00:23:11.897Z,965.17
2023-01-19T00:24:11.809Z,965.13
2023-01-19T00:25:11.727Z,965.14
2023-01-19T00:26:11.634Z,965.13
2023-01-19T00:27:11.558Z,965.15
2023-01-19T00:28:11.517Z,965.14
2023-01-19T00:29:11.390Z,965.14
2023-01-19T00:30:11.301Z,965.12
2023-01-19T00:31:11.260Z,965.15
2023-01-19T00:32:11.115Z,965.11
2023-01-19T00:33:11.031Z,965.13
2023-01-19T00:34:10.941Z,965.14
2023-01-19T00:35:10.853Z,965.16
2023-01-19T00:36:10.763Z,965.15
2023-01-19T00:37:10.678Z,965.17
2023-01-19T00:38:10.598Z,965.15
2023-01-19T00:39:10.510Z,965.17
2023-01-19T00:40:10.419Z,965.17
2023-01-19T00:41:10.334Z,965.14
2023-01-19T00:42:10.258Z,965.15
2023-01-19T00:43:10.167Z,965.16
2023-01-19T00:44:10.087Z,965.18
2023-01-19T00:45:09.983Z,965.20
2023-01-19T00:46:09.965Z,965.19
2023-01-19T00:47:09.814Z,965.21
2023-01-19T00:48:09.720Z,965.22
2023-01-19T00:49:09.641Z,965.21
2023-01-19T00:50:09.544Z,965.27
2023-01-19T00:51:09.469Z,965.31
2023-01-19T00:52:09.377Z,965.28
2023-01-19T00:53:09.291Z,965.30
2023-01-19T00:54:09.209Z,965.30
2023-01-19T00:55:09.126Z,965.30
2023-01-19T00:56:09.041Z,965.34
2023-01-19T00:57:08.941Z,965.33
2023-01-19T00:58:08.853Z,965.34
2023-01-19T00:59:08.767Z,965.38
2023-01-19T01:00:08.678Z,965.37
2023-01-19T01:01:08.686Z,965.36
2023-01-19T01:02:08.735Z,965.40
2023-01-19T01:03:08.490Z,965.38
2023-01-19T01:04:08.327Z,965.35
2023-01-19T01:05:08.261Z,965.41
2023-01-19T01:06:08.158Z,965.41
2023-01-19T01:07:08.071Z,965.41
2023-01-19T01:08:07.982Z,965.42
2023-01-19T01:09:07.894Z,965.46
2023-01-19T01:10:07.821Z,965.49
2023-01-19T01:11:07.717Z,965.48
2023-01-19T01:12:07.630Z,965.48
2023-01-19T01:13:21.229Z,965.50
2023-01-19T01:14:07.467Z,965.53
2023-01-19T01:15:07.377Z,965.52
2023-01-19T01:16:07.311Z,965.55
2023-01-19T01:17:07.206Z,965.56
2023-01-19T01:18:07.110Z,965.58
2023-01-19T01:19:07.021Z,965.57
2023-01-19T01:20:06.932Z,965.61
2023-01-19T01:21:06.848Z,965.62
2023-01-19T01:22:06.763Z,965.67
2023-01-19T01:23:06.674Z,965.66
2023-01-19T01:24:06.598Z,965.68
2023-01-19T01:25:06.499Z,965.70
2023-01-19T01:26:06.407Z,965.70
2023-01-19T01:27:06.324Z,965.72
2023-01-19T01:28:06.236Z,965.77
2023-01-19T01:29:06.169Z,965.77
2023-01-19T01:30:06.067Z,965.75
2023-01-19T01:31:05.977Z,965.80
2023-01-19T01:32:05.891Z,965.87
2023-01-19T01:33:05.800Z,965.89
2023-01-19T01:34:05.710Z,965.95
2023-01-19T01:35:05.630Z,965.95
2023-01-19T01:36:05.536Z,965.95
2023-01-19T01:37:05.449Z,965.99
2023-01-19T01:38:05.373Z,965.98
2023-01-19T01:39:05.277Z,965.92
2023-01-19T01:40:05.187Z,965.94
2023-01-19T01:41:05.105Z,966.00
2023-01-19T01:42:05.017Z,965.92
2023-01-19T01:43:04.934Z,965.94
2023-01-19T01:44:04.836Z,965.93
2023-01-19T01:45:04.762Z,965.90
2023-01-19T01:46:04.735Z,965.89
2023-01-19T01:47:04.582Z,965.91
2023-01-19T01:48:04.493Z,965.90
2023-01-19T01:49:04.408Z,965.87
2023-01-19T01:50:04.323Z,965.91
2023-01-19T01:51:04.230Z,965.89
2023-01-19T01:52:04.153Z,965.88
2023-01-19T01:53:07.134Z,965.88
2023-01-19T01:54:03.969Z,965.86
2023-01-19T01:55:03.890Z,965.90
2023-01-19T01:56:03.787Z,965.88
2023-01-19T01:57:03.706Z,965.89
2023-01-19T01:58:03.615Z,965.87
2023-01-19T01:59:03.532Z,965.86
2023-01-19T02:00:03.445Z,965.87
2023-01-19T02:01:03.467Z,965.86
2023-01-19T02:02:03.391Z,965.87
2023-01-19T02:03:03.787Z,965.89
2023-01-19T02:04:03.094Z,965.88
2023-01-19T02:05:03.001Z,965.88
2023-01-19T02:06:02.939Z,965.91
2023-01-19T02:07:02.826Z,965.93
2023-01-19T02:08:02.748Z,965.91
2023-01-19T02:09:02.670Z,965.90
2023-01-19T02:10:02.574Z,965.94
2023-01-19T02:11:02.492Z,965.94
2023-01-19T02:12:02.391Z,965.91
2023-01-19T02:13:02.854Z,965.92
2023-01-19T02:14:02.214Z,965.86
2023-01-19T02:15:02.131Z,965.87
2023-01-19T02:16:02.051Z,965.86
2023-01-19T02:17:01.963Z,965.84
2023-01-19T02:18:01.873Z,965.80
2023-01-19T02:19:01.785Z,965.80
2023-01-19T02:20:01.695Z,965.80
2023-01-19T02:21:01.602Z,965.82
2023-01-19T02:22:01.523Z,965.82
2023-01-19T02:23:01.998Z,965.82
2023-01-19T02:24:01.343Z,965.83
2023-01-19T02:25:01.257Z,965.85
2023-01-19T02:26:01.179Z,965.83
2023-01-19T02:27:01.084Z,965.85
2023-01-19T02:28:01.001Z,965.86
2023-01-19T02:29:00.905Z,965.85
2023-01-19T02:30:00.821Z,965.92
2023-01-19T02:31:00.744Z,965.95
2023-01-19T02:32:00.647Z,965.93
2023-01-19T02:33:00.982Z,965.96
2023-01-19T02:34:00.468Z,965.96
2023-01-19T02:35:00.384Z,965.96
2023-01-19T02:36:00.289Z,965.99
2023-01-19T02:37:00.201Z,966.02
2023-01-19T02:38:00.126Z,965.98
2023-01-19T02:39:00.028Z,966.01
2023-01-19T02:39:59.942Z,965.98
2023-01-19T02:40:59.850Z,966.00
2023-01-19T02:41:59.763Z,965.97
2023-01-19T02:43:00.097Z,966.01
2023-01-19T02:43:59.591Z,965.98
2023-01-19T02:44:59.506Z,965.99
2023-01-19T02:45:59.430Z,965.96
2023-01-19T02:46:59.336Z,965.97
2023-01-19T02:47:59.242Z,966.02
2023-01-19T02:48:59.179Z,966.02
2023-01-19T02:49:59.074Z,966.05
2023-01-19T02:50:58.977Z,966.05
2023-01-19T02:51:58.902Z,966.08
2023-01-19T02:52:59.252Z,966.12
2023-01-19T02:53:58.716Z,966.07
2023-01-19T02:54:58.644Z,966.09
2023-01-19T02:55:58.548Z,966.06
2023-01-19T02:56:58.448Z,966.08
2023-01-19T02:57:58.366Z,966.03
2023-01-19T02:58:58.285Z,966.05
2023-01-19T02:59:58.190Z,966.12
2023-01-19T03:00:58.149Z,966.03
2023-01-19T03:01:58.062Z,966.05
2023-01-19T03:02:58.132Z,966.11
2023-01-19T03:03:57.836Z,966.08
2023-01-19T03:04:57.762Z,966.11
2023-01-19T03:05:57.663Z,966.12
2023-01-19T03:06:57.573Z,966.12
2023-01-19T03:07:57.496Z,966.14
2023-01-19T03:08:57.402Z,966.18
2023-01-19T03:09:57.313Z,966.18
2023-01-19T03:10:57.229Z,966.24
2023-01-19T03:11:57.144Z,966.19
2023-01-19T03:12:57.056Z,966.21
2023-01-19T03:13:56.961Z,966.23
2023-01-19T03:14:56.900Z,966.21
2023-01-19T03:15:56.840Z,966.22
2023-01-19T03:16:56.781Z,966.22
2023-01-19T03:17:56.611Z,966.25
2023-01-19T03:18:56.523Z,966.28
2023-01-19T03:19:56.437Z,966.22
2023-01-19T03:20:56.351Z,966.24
2023-01-19T03:21:56.260Z,966.25
2023-01-19T03:22:56.170Z,966.23
2023-01-19T03:23:56.083Z,966.23
2023-01-19T03:24:56.008Z,966.25
2023-01-19T03:25:55.914Z,966.24
2023-01-19T03:26:55.830Z,966.26
2023-01-19T03:27:55.735Z,966.24
2023-01-19T03:28:55.646Z,966.26
2023-01-19T03:29:55.564Z,966.28
2023-01-19T03:30:55.502Z,966.25
2023-01-19T03:31:55.380Z,966.29
2023-01-19T03:32:55.301Z,966.29
2023-01-19T03:33:55.205Z,966.26
2023-01-19T03:34:55.128Z,966.30
2023-01-19T03:35:55.032Z,966.26
2023-01-19T03:36:54.954Z,966.28
2023-01-19T03:37:54.859Z,966.27
2023-01-19T03:38:54.767Z,966.28
2023-01-19T03:39:54.678Z,966.28
2023-01-19T03:40:54.595Z,966.31
2023-01-19T03:41:54.513Z,966.30
2023-01-19T03:42:54.416Z,966.35
2023-01-19T03:43:54.326Z,966.38
2023-01-19T03:44:54.251Z,966.37
2023-01-19T03:45:54.168Z,966.37
2023-01-19T03:46:54.068Z,966.37
2023-01-19T03:47:53.979Z,966.41
2023-01-19T03:48:53.890Z,966.37
2023-01-19T03:49:53.807Z,966.39
2023-01-19T03:50:53.711Z,966.42
2023-01-19T03:51:53.629Z,966.44
2023-01-19T03:52:53.538Z,966.40
2023-01-19T03:53:53.457Z,966.46
2023-01-19T03:54:53.365Z,966.45
2023-01-19T03:55:53.280Z,966.46
2023-01-19T03:56:53.197Z,966.44
2023-01-19T03:57:53.107Z,966.48
2023-01-19T03:58:53.012Z,966.50
2023-01-19T03:59:52.931Z,966.52
2023-01-19T04:00:52.866Z,966.52
2023-01-19T04:01:52.772Z,966.54
2023-01-19T04:02:52.682Z,966.52
2023-01-19T04:03:52.574Z,966.54
2023-01-19T04:04:52.487Z,966.52
2023-01-19T04:05:52.404Z,966.53
2023-01-19T04:06:52.312Z,966.50
2023-01-19T04:07:52.229Z,966.51
2023-01-19T04:08:52.130Z,966.48
2023-01-19T04:09:52.046Z,966.47
2023-01-19T04:10:51.959Z,966.48
2023-01-19T04:11:51.874Z,966.47
2023-01-19T04:12:51.780Z,966.41
2023-01-19T04:13:51.730Z,966.43
2023-01-19T04:14:51.611Z,966.42
2023-01-19T04:15:51.561Z,966.46
2023-01-19T04:16:51.430Z,966.46
2023-01-19T04:17:51.354Z,966.46
2023-01-19T04:18:51.262Z,966.43
2023-01-19T04:19:51.165Z,966.42
2023-01-19T04:20:51.078Z,966.41
2023-01-19T04:21:50.988Z,966.42
2023-01-19T04:22:50.902Z,966.38
2023-01-19T04:23:50.816Z,966.38
2023-01-19T04:24:50.726Z,966.43
2023-01-19T04:25:50.641Z,966.39
2023-01-19T04:26:50.553Z,966.44
2023-01-19T04:27:50.469Z,966.41
2023-01-19T04:28:50.373Z,966.43
2023-01-19T04:29:50.288Z,966.44
2023-01-19T04:30:50.223Z,966.41
2023-01-19T04:31:50.113Z,966.40
2023-01-19T04:32:50.041Z,966.42
2023-01-19T04:33:49.939Z,966.37
2023-01-19T04:34:49.848Z,966.40
2023-01-19T04:35:49.760Z,966.42
2023-01-19T04:36:49.676Z,966.42
2023-01-19T04:37:49.588Z,966.38
2023-01-19T04:38:49.500Z,966.41
2023-01-19T04:39:49.407Z,966.38
2023-01-19T04:40:49.328Z,966.44
2023-01-19T04:41:49.239Z,966.40
2023-01-19T04:42:49.144Z,966.41
2023-01-19T04:43:49.061Z,966.38
2023-01-19T04:44:48.979Z,966.39
2023-01-19T04:45:48.900Z,966.42
2023-01-19T04:46:48.813Z,966.43
2023-01-19T04:47:48.706Z,966.45
2023-01-19T04:48:48.624Z,966.44
2023-01-19T04:49:48.531Z,966.37
2023-01-19T04:50:48.448Z,966.41
2023-01-19T04:51:48.356Z,966.42
2023-01-19T04:52:48.271Z,966.40
2023-01-19T04:53:48.185Z,966.39
2023-01-19T04:54:48.105Z,966.43
2023-01-19T04:55:48.004Z,966.43
2023-01-19T04:56:47.911Z,966.45
2023-01-19T04:57:47.840Z,966.47
2023-01-19T04:58:47.739Z,966.46
2023-01-19T04:59:47.648Z,966.43
2023-01-19T05:00:47.705Z,966.47
2023-01-19T05:01:47.525Z,966.53
2023-01-19T05:02:47.404Z,966.50
2023-01-19T05:03:47.300Z,966.53
2023-01-19T05:04:47.213Z,966.54
2023-01-19T05:05:47.129Z,966.55
2023-01-19T05:06:47.038Z,966.53
2023-01-19T05:07:46.962Z,966.55
2023-01-19T05:08:46.859Z,966.57
2023-01-19T05:09:46.776Z,966.57
2023-01-19T05:10:46.681Z,966.56
2023-01-19T05:11:46.597Z,966.59
2023-01-19T05:12:46.507Z,966.66
2023-01-19T05:13:46.421Z,966.64
2023-01-19T05:14:46.329Z,966.64
2023-01-19T05:15:46.317Z,966.61
2023-01-19T05:16:46.162Z,966.63
2023-01-19T05:17:46.202Z,966.62
2023-01-19T05:18:45.978Z,966.58
2023-01-19T05:19:45.891Z,966.58
2023-01-19T05:20:45.806Z,966.59
2023-01-19T05:21:45.718Z,966.59
2023-01-19T05:22:45.653Z,966.58
2023-01-19T05:23:45.541Z,966.59
2023-01-19T05:24:45.459Z,966.59
2023-01-19T05:25:45.362Z,966.59
2023-01-19T05:26:45.275Z,966.62
2023-01-19T05:27:45.199Z,966.65
2023-01-19T05:28:45.140Z,966.63
2023-01-19T05:29:45.012Z,966.61
2023-01-19T05:30:44.953Z,966.61
2023-01-19T05:31:44.873Z,966.67
2023-01-19T05:32:44.761Z,966.65
2023-01-19T05:33:44.660Z,966.67
2023-01-19T05:34:44.569Z,966.68
2023-01-19T05:35:44.481Z,966.65
2023-01-19T05:36:44.396Z,966.65
2023-01-19T05:37:44.310Z,966.67
2023-01-19T05:38:44.214Z,966.65
2023-01-19T05:39:44.135Z,966.64
2023-01-19T05:40:44.042Z,966.64
2023-01-19T05:41:43.961Z,966.62
2023-01-19T05:42:43.871Z,966.64
2023-01-19T05:43:43.783Z,966.63
2023-01-19T05:44:43.692Z,966.66
2023-01-19T05:45:43.604Z,966.65
2023-01-19T05:46:43.531Z,966.65
2023-01-19T05:47:43.426Z,966.66
2023-01-19T05:48:43.340Z,966.67
2023-01-19T05:49:43.263Z,966.65
2023-01-19T05:50:43.162Z,966.64
2023-01-19T05:51:43.078Z,966.63
2023-01-19T05:52:42.982Z,966.63
2023-01-19T05:53:42.895Z,966.67
2023-01-19T05:54:42.809Z,966.64
2023-01-19T05:55:42.721Z,966.62
2023-01-19T05:56:42.642Z,966.61
2023-01-19T05:57:42.543Z,966.63
2023-01-19T05:58:42.457Z,966.59
2023-01-19T05:59:42.373Z,966.60
2023-01-19T06:00:42.280Z,966.62
2023-01-19T06:01:42.262Z,966.60
2023-01-19T06:02:42.139Z,966.61
2023-01-19T06:03:42.014Z,966.61
2023-01-19T06:04:41.931Z,966.60
2023-01-19T06:05:41.853Z,966.63
2023-01-19T06:06:41.762Z,966.63
2023-01-19T06:07:41.664Z,966.65
2023-01-19T06:08:41.576Z,966.68
2023-01-19T06:09:41.491Z,966.65
2023-01-19T06:10:41.401Z,966.68
2023-01-19T06:11:41.313Z,966.70
2023-01-19T06:12:41.220Z,966.69
2023-01-19T06:13:42.144Z,966.68
2023-01-19T06:14:41.056Z,966.76
2023-01-19T06:15:40.959Z,966.78
2023-01-19T06:16:40.875Z,966.78
2023-01-19T06:17:40.786Z,966.80
2023-01-19T06:18:40.695Z,966.84
2023-01-19T06:19:40.606Z,966.85
2023-01-19T06:20:40.528Z,966.85
2023-01-19T06:21:40.432Z,966.85
2023-01-19T06:22:40.355Z,966.85
2023-01-19T06:23:40.254Z,966.85
2023-01-19T06:24:40.165Z,966.88
2023-01-19T06:25:40.089Z,966.87
2023-01-19T06:26:39.995Z,966.87
2023-01-19T06:27:39.903Z,966.95
2023-01-19T06:28:39.812Z,966.89
2023-01-19T06:29:39.733Z,966.92
2023-01-19T06:30:39.665Z,966.91
2023-01-19T06:31:39.615Z,966.90
2023-01-19T06:32:39.459Z,966.91
2023-01-19T06:33:39.371Z,966.91
2023-01-19T06:34:39.287Z,966.92
2023-01-19T06:35:39.201Z,966.92
2023-01-19T06:36:39.123Z,966.94
2023-01-19T06:37:39.024Z,966.97
2023-01-19T06:38:38.937Z,966.93
2023-01-19T06:39:38.846Z,966.95
2023-01-19T06:40:38.762Z,966.95
2023-01-19T06:41:38.668Z,966.94
2023-01-19T06:42:38.582Z,966.93
2023-01-19T06:43:38.492Z,966.94
2023-01-19T06:44:38.406Z,966.93
2023-01-19T06:45:38.365Z,966.96
2023-01-19T06:46:38.230Z,966.97
2023-01-19T06:47:38.143Z,966.92
2023-01-19T06:48:38.062Z,966.95
2023-01-19T06:49:37.964Z,966.96
2023-01-19T06:50:37.874Z,966.97
2023-01-19T06:51:37.785Z,966.95
2023-01-19T06:52:37.706Z,966.98
2023-01-19T06:53:37.627Z,966.96
2023-01-19T06:54:37.534Z,966.95
2023-01-19T06:55:37.434Z,966.93
2023-01-19T06:56:37.347Z,967.01
2023-01-19T06:57:37.259Z,966.99
2023-01-19T06:58:37.175Z,966.98
2023-01-19T06:59:37.080Z,967.01
2023-01-19T07:00:36.997Z,967.02
2023-01-19T07:01:37.030Z,967.03
2023-01-19T07:02:36.976Z,967.00
2023-01-19T07:03:36.759Z,967.00
2023-01-19T07:04:36.644Z,966.99
2023-01-19T07:05:36.552Z,966.97
2023-01-19T07:06:36.467Z,967.01
2023-01-19T07:07:36.374Z,966.99
2023-01-19T07:08:36.286Z,966.99
2023-01-19T07:09:36.240Z,967.03
2023-01-19T07:11:21.597Z,967.01
2023-01-19T07:11:36.025Z,967.02
2023-01-19T07:12:35.936Z,967.03
2023-01-19T07:13:35.848Z,967.00
2023-01-19T07:14:35.764Z,967.02
2023-01-19T07:15:35.673Z,967.07
2023-01-19T07:16:35.642Z,967.06
2023-01-19T07:17:35.491Z,967.08
2023-01-19T07:18:35.404Z,967.08
2023-01-19T07:19:35.331Z,967.09
2023-01-19T07:20:35.235Z,967.10
2023-01-19T07:21:35.139Z,967.10
2023-01-19T07:22:35.052Z,967.02
2023-01-19T07:23:34.972Z,967.06
2023-01-19T07:24:34.877Z,967.05
2023-01-19T07:25:34.796Z,967.05
2023-01-19T07:26:34.707Z,967.06
2023-01-19T07:27:34.612Z,967.11
2023-01-19T07:28:34.536Z,967.11
2023-01-19T07:29:34.433Z,967.08
2023-01-19T07:30:34.449Z,967.14
2023-01-19T07:31:34.370Z,967.15
2023-01-19T07:32:34.171Z,967.13
2023-01-19T07:33:34.083Z,967.16
2023-01-19T07:34:34.007Z,967.18
2023-01-19T07:35:33.905Z,967.20
2023-01-19T07:36:33.826Z,967.18
2023-01-19T07:37:33.739Z,967.24
2023-01-19T07:38:33.648Z,967.24
2023-01-19T07:39:33.566Z,967.23
2023-01-19T07:40:33.470Z,967.22
2023-01-19T07:41:33.384Z,967.25
2023-01-19T07:42:33.288Z,967.23
2023-01-19T07:43:33.209Z,967.22
2023-01-19T07:44:33.116Z,967.24
2023-01-19T07:45:33.026Z,967.21
2023-01-19T07:46:32.942Z,967.26
2023-01-19T07:47:32.857Z,967.20
2023-01-19T07:48:32.765Z,967.22
2023-01-19T07:49:32.679Z,967.22
2023-01-19T07:50:32.588Z,967.25
2023-01-19T07:51:32.499Z,967.27
2023-01-19T07:52:32.410Z,967.29
2023-01-19T07:53:32.340Z,967.31
2023-01-19T07:54:32.234Z,967.28
2023-01-19T07:55:32.152Z,967.33
2023-01-19T07:56:32.962Z,967.35
2023-01-19T07:57:31.973Z,967.37
2023-01-19T07:58:31.881Z,967.34
2023-01-19T07:59:31.791Z,967.36
2023-01-19T08:00:31.704Z,967.39
2023-01-19T08:01:31.758Z,967.37
2023-01-19T08:02:31.532Z,967.39
2023-01-19T08:03:31.441Z,967.44
2023-01-19T08:04:31.376Z,967.44
2023-01-19T08:05:31.271Z,967.43
2023-01-19T08:06:31.185Z,967.47
2023-01-19T08:07:31.086Z,967.50
2023-01-19T08:08:31.003Z,967.48
2023-01-19T08:09:30.918Z,967.53
2023-01-19T08:10:30.823Z,967.53
2023-01-19T08:11:30.741Z,967.52
2023-01-19T08:12:30.652Z,967.56
2023-01-19T08:13:30.622Z,967.58
2023-01-19T08:14:30.479Z,967.67
2023-01-19T08:15:30.409Z,967.59
2023-01-19T08:16:30.300Z,967.64
2023-01-19T08:17:30.210Z,967.63
2023-01-19T08:18:30.125Z,967.66
2023-01-19T08:19:30.060Z,967.65
2023-01-19T08:20:29.999Z,967.67
2023-01-19T08:21:29.860Z,967.69
2023-01-19T08:22:29.785Z,967.72
2023-01-19T08:23:29.691Z,967.70
2023-01-19T08:24:29.603Z,967.74
2023-01-19T08:25:29.511Z,967.72
2023-01-19T08:26:29.447Z,967.70
2023-01-19T08:27:29.336Z,967.72
2023-01-19T08:28:29.260Z,967.74
2023-01-19T08:29:29.167Z,967.69
2023-01-19T08:30:29.086Z,967.73
2023-01-19T08:31:29.071Z,967.71
2023-01-19T08:32:28.980Z,967.70
2023-01-19T08:33:28.812Z,967.72
2023-01-19T08:34:28.728Z,967.74
2023-01-19T08:35:28.643Z,967.77
2023-01-19T08:36:28.562Z,967.70
2023-01-19T08:37:28.470Z,967.76
2023-01-19T08:38:28.376Z,967.76
2023-01-19T08:39:28.291Z,967.79
2023-01-19T08:40:28.212Z,967.74
2023-01-19T08:41:28.133Z,967.80
2023-01-19T08:42:28.029Z,967.79
2023-01-19T08:43:27.944Z,967.77
2023-01-19T08:44:27.854Z,967.79
2023-01-19T08:45:27.768Z,967.82
2023-01-19T08:46:27.724Z,967.82
2023-01-19T08:47:27.643Z,967.88
2023-01-19T08:48:27.505Z,967.88
2023-01-19T08:49:27.419Z,967.87
2023-01-19T08:50:27.333Z,967.88
2023-01-19T08:51:27.246Z,967.90
2023-01-19T08:52:27.157Z,967.91
2023-01-19T08:53:27.071Z,967.91
2023-01-19T08:54:26.987Z,967.91
2023-01-19T08:55:26.903Z,967.96
2023-01-19T08:56:26.814Z,967.98
2023-01-19T08:57:26.725Z,968.02
2023-01-19T08:58:26.641Z,968.00
2023-01-19T08:59:26.565Z,968.01
2023-01-19T09:00:26.508Z,968.04
2023-01-19T09:01:26.508Z,968.06
2023-01-19T09:02:26.373Z,968.07
2023-01-19T09:03:26.249Z,968.08
2023-01-19T09:04:26.120Z,968.04
2023-01-19T09:05:26.036Z,968.05
2023-01-19T09:06:25.945Z,968.08
2023-01-19T09:07:25.862Z,968.13
2023-01-19T09:08:25.791Z,968.16
2023-01-19T09:09:25.683Z,968.16
2023-01-19T09:10:25.609Z,968.18
2023-01-19T09:11:25.514Z,968.16
2023-01-19T09:12:25.432Z,968.17
2023-01-19T09:13:25.342Z,968.14
2023-01-19T09:14:25.258Z,968.19
2023-01-19T09:15:25.167Z,968.21
2023-01-19T09:16:25.155Z,968.25
2023-01-19T09:17:24.996Z,968.27
2023-01-19T09:18:24.917Z,968.29
2023-01-19T09:19:24.828Z,968.33
2023-01-19T09:20:24.747Z,968.32
2023-01-19T09:21:24.651Z,968.30
2023-01-19T09:22:24.568Z,968.35
2023-01-19T09:23:24.488Z,968.38
2023-01-19T09:24:24.399Z,968.36
2023-01-19T09:25:24.312Z,968.33
2023-01-19T09:26:24.222Z,968.34
2023-01-19T09:27:24.138Z,968.38
2023-01-19T09:28:24.056Z,968.36
2023-01-19T09:29:23.966Z,968.41
2023-01-19T09:30:23.883Z,968.34
2023-01-19T09:31:23.930Z,968.35
2023-01-19T09:32:23.722Z,968.34
2023-01-19T09:33:23.640Z,968.34
2023-01-19T09:34:23.536Z,968.38
2023-01-19T09:35:23.449Z,968.34
2023-01-19T09:36:23.368Z,968.32
2023-01-19T09:37:23.293Z,968.39
2023-01-19T09:38:23.197Z,968.37
2023-01-19T09:39:23.112Z,968.34
2023-01-19T09:40:23.024Z,968.36
2023-01-19T09:41:22.945Z,968.37
2023-01-19T09:42:22.850Z,968.34
2023-01-19T09:43:22.781Z,968.33
2023-01-19T09:44:22.681Z,968.33
2023-01-19T09:45:22.600Z,968.34
2023-01-19T09:46:22.529Z,968.29
2023-01-19T09:47:22.432Z,968.27
2023-01-19T09:48:22.345Z,968.27
2023-01-19T09:49:22.259Z,968.23
2023-01-19T09:50:22.169Z,968.25
2023-01-19T09:51:22.082Z,968.28
2023-01-19T09:52:22.006Z,968.28
2023-01-19T09:53:21.913Z,968.21
2023-01-19T09:54:21.831Z,968.28
2023-01-19T09:55:21.745Z,968.23
2023-01-19T09:56:21.671Z,968.25
2023-01-19T09:57:21.577Z,968.23
2023-01-19T09:58:21.491Z,968.24
2023-01-19T09:59:21.406Z,968.26
2023-01-19T10:00:21.317Z,968.22
2023-01-19T10:01:21.317Z,968.32
2023-01-19T10:02:21.150Z,968.28
2023-01-19T10:03:21.133Z,968.28
2023-01-19T10:04:20.979Z,968.30
2023-01-19T10:05:20.909Z,968.35
2023-01-19T10:06:20.813Z,968.38
2023-01-19T10:07:20.734Z,968.28
2023-01-19T10:08:20.648Z,968.27
2023-01-19T10:09:20.557Z,968.29
2023-01-19T10:10:20.583Z,968.33
2023-01-19T10:11:20.394Z,968.28
2023-01-19T10:12:20.305Z,968.30
2023-01-19T10:13:20.221Z,968.28
2023-01-19T10:14:20.150Z,968.19
2023-01-19T10:15:20.056Z,968.27
2023-01-19T10:16:20.093Z,968.35
2023-01-19T10:17:19.893Z,968.27
2023-01-19T10:18:19.819Z,968.34
2023-01-19T10:19:20.651Z,968.34
2023-01-19T10:20:19.658Z,968.31
2023-01-19T10:21:19.624Z,968.31
2023-01-19T10:22:19.498Z,968.25
2023-01-19T10:23:19.390Z,968.23
2023-01-19T10:24:19.319Z,968.24
2023-01-19T10:25:19.300Z,968.22
2023-01-19T10:26:19.142Z,968.22
2023-01-19T10:27:19.058Z,968.17
2023-01-19T10:28:18.972Z,968.12
2023-01-19T10:29:18.886Z,968.20
2023-01-19T10:30:18.806Z,968.23
2023-01-19T10:31:18.841Z,968.22
2023-01-19T10:32:18.645Z,968.18
2023-01-19T10:33:18.575Z,968.18
2023-01-19T10:34:20.941Z,968.24
2023-01-19T10:35:18.389Z,968.27
2023-01-19T10:36:18.315Z,968.25
2023-01-19T10:37:18.243Z,968.23
2023-01-19T10:38:18.211Z,968.23
2023-01-19T10:39:18.057Z,968.25
2023-01-19T10:40:17.995Z,968.25
2023-01-19T10:41:17.890Z,968.21
2023-01-19T10:42:17.801Z,968.25
2023-01-19T10:43:17.740Z,968.26
2023-01-19T10:44:17.662Z,968.25
2023-01-19T10:45:17.557Z,968.25
2023-01-19T10:46:17.566Z,968.30
2023-01-19T10:47:17.445Z,968.25
2023-01-19T10:48:17.354Z,968.26
2023-01-19T10:49:17.226Z,968.29
2023-01-19T10:50:17.138Z,968.36
2023-01-19T10:51:17.055Z,968.39
2023-01-19T10:52:19.004Z,968.45
2023-01-19T10:53:16.961Z,968.36
2023-01-19T10:54:16.835Z,968.34
2023-01-19T10:55:16.773Z,968.31
2023-01-19T10:56:16.666Z,968.38
2023-01-19T10:57:16.559Z,968.32
2023-01-19T10:58:18.841Z,968.31
2023-01-19T10:59:16.379Z,968.38
2023-01-19T11:00:16.307Z,968.28
2023-01-19T11:01:16.326Z,968.29
2023-01-19T11:02:16.379Z,968.28
2023-01-19T11:03:16.178Z,968.27
2023-01-19T11:04:15.976Z,968.23
2023-01-19T11:05:15.879Z,968.21
2023-01-19T11:06:15.810Z,968.21
2023-01-19T11:07:15.712Z,968.18
2023-01-19T11:08:15.622Z,968.18
2023-01-19T11:09:15.611Z,968.21
2023-01-19T11:10:15.460Z,968.15
2023-01-19T11:11:15.372Z,968.15
2023-01-19T11:12:15.292Z,968.14
2023-01-19T11:13:15.204Z,968.14
2023-01-19T11:14:15.118Z,968.12
2023-01-19T11:15:15.035Z,968.10
2023-01-19T11:16:14.985Z,968.13
2023-01-19T11:17:14.867Z,968.13
2023-01-19T11:18:14.780Z,968.12
2023-01-19T11:19:14.695Z,968.11
2023-01-19T11:20:14.609Z,968.11
2023-01-19T11:21:14.532Z,968.07
2023-01-19T11:22:14.445Z,968.07
2023-01-19T11:23:14.387Z,968.04
2023-01-19T11:24:14.271Z,968.02
2023-01-19T11:25:14.191Z,968.06
2023-01-19T11:26:14.111Z,968.04
2023-01-19T11:27:14.030Z,968.01
2023-01-19T11:28:13.939Z,968.02
2023-01-19T11:29:13.856Z,967.97
2023-01-19T11:30:13.810Z,968.01
2023-01-19T11:31:13.807Z,968.04
2023-01-19T11:32:13.597Z,968.00
2023-01-19T11:33:13.519Z,967.96
2023-01-19T11:34:13.429Z,967.98
2023-01-19T11:35:13.356Z,967.95
2023-01-19T11:36:13.264Z,968.00
2023-01-19T11:37:13.181Z,968.04
2023-01-19T11:38:13.094Z,968.01
2023-01-19T11:39:13.032Z,968.00
2023-01-19T11:40:14.386Z,967.99
2023-01-19T11:41:12.850Z,968.00
2023-01-19T11:42:12.757Z,968.02
2023-01-19T11:43:12.678Z,967.99
2023-01-19T11:44:12.588Z,968.00
2023-01-19T11:45:12.505Z,967.92
2023-01-19T11:46:12.424Z,967.99
2023-01-19T11:47:12.377Z,967.98
2023-01-19T11:48:12.264Z,967.93
2023-01-19T11:49:12.173Z,967.95
2023-01-19T11:50:12.085Z,967.95
2023-01-19T11:51:12.004Z,967.94
2023-01-19T11:52:11.927Z,967.92
2023-01-19T11:53:11.840Z,967.90
2023-01-19T11:54:11.752Z,967.93
2023-01-19T11:55:11.671Z,967.92
2023-01-19T11:56:11.587Z,967.90
2023-01-19T11:57:11.500Z,967.95
2023-01-19T11:58:11.416Z,967.93
2023-01-19T11:59:11.334Z,967.91
2023-01-19T12:00:11.250Z,967.89
2023-01-19T12:01:11.231Z,967.96
2023-01-19T12:02:11.128Z,967.91
2023-01-19T12:03:11.033Z,967.93
2023-01-19T12:04:10.919Z,967.93
2023-01-19T12:05:10.833Z,967.95
2023-01-19T12:06:10.754Z,967.96
2023-01-19T12:07:10.695Z,967.98
2023-01-19T12:08:10.580Z,967.97
2023-01-19T12:09:10.499Z,967.94
2023-01-19T12:10:10.416Z,967.97
2023-01-19T12:11:10.327Z,967.98
2023-01-19T12:12:10.244Z,967.98
2023-01-19T12:13:10.172Z,968.01
2023-01-19T12:14:10.081Z,968.04
2023-01-19T12:15:09.992Z,968.00
2023-01-19T12:16:09.962Z,968.06
2023-01-19T12:17:09.820Z,968.01
2023-01-19T12:18:09.738Z,968.04
2023-01-19T12:19:09.656Z,968.03
2023-01-19T12:20:09.578Z,968.03
2023-01-19T12:21:09.486Z,968.02
2023-01-19T12:22:09.403Z,968.02
2023-01-19T12:23:09.316Z,968.02
2023-01-19T12:24:09.617Z,968.00
2023-01-19T12:25:09.152Z,968.02
2023-01-19T12:26:09.063Z,968.02
2023-01-19T12:27:08.980Z,968.05